Flight Track Log - Related Links

Times and Time Zones

All times are in EDT time to prevent confusion due to time zone crossing. See the SWA433 flight status page for this flight to view local times or setup timezone preferences in your user account.

Time Position Orientation Groundspeed Altitude Reporting Facility
EDT Latitude Longitude Course Direction KTS MPH feet Rate Location/Type
11:57AM 28.0000 -82.5333 360° North 154 177 700  Level Tampa TRACON
11:58AM 28.0167 -82.5333 360° North 172 198 1,600 2,414 Climbing Tampa TRACON
12:00PM 28.0492 -82.5775 310° West 98 113 7,700 2,631 Climbing Miami Center
12:01PM 27.9700 -82.5758 179° South 160 184 10,500 2,800 Climbing Miami Center
12:02PM 27.8739 -82.5758 180° South 259 298 13,300 3,273 Climbing Miami Center
12:03PM 27.7636 -82.5678 176° South 331 381 17,100 2,950 Climbing Miami Center
12:04PM 27.6714 -82.5281 159° South 379 436 19,200 2,521 Climbing Miami Center
12:05PM 27.5669 -82.4783 157° South 397 457 22,100 2,900 Climbing Miami Center
12:06PM 27.4486 -82.4094 153° Southeast 423 487 25,000 2,450 Climbing Miami Center
12:07PM 27.3619 -82.3797 163° South 417 480 27,000 1,000 Climbing Miami Center
12:08PM 27.2419 -82.3528 169° South 408 470 27,000  Level Miami Center
12:09PM 27.1303 -82.3289 169° South 408 470 27,000  Level Miami Center
12:10PM 27.0183 -82.3072 170° South 415 478 27,000  Level Miami Center
12:11PM 26.8942 -82.2828 170° South 410 472 27,000  Level Miami Center
12:12PM 26.7822 -82.2592 169° South 410 472 27,000  Level Miami Center
12:13PM 26.6686 -82.2306 167° South 410 472 27,000  Level Miami Center
12:14PM 26.5544 -82.2092 170° South 410 472 27,000  Level Miami Center
12:15PM 26.4425 -82.1903 171° South 415 478 27,000  Level Miami Center
12:16PM 26.3306 -82.1667 169° South 415 478 27,000  Level Miami Center
12:17PM 26.2169 -82.1383 167° South 415 478 27,000  Level Miami Center
12:18PM 26.1172 -82.1178 170° South 408 470 27,000  Level Miami Center
12:19PM 26.0056 -82.0919 168° South 408 470 27,000  Level Miami Center
12:20PM 25.8792 -82.0658 169° South 415 478 27,000 -252 Level Miami Center
12:21PM 25.7650 -82.0447 171° South 415 478 26,500 -1,600 Descending Miami Center
12:22PM 25.6511 -82.0214 170° South 415 478 23,800 -2,700 Descending Miami Center
12:23PM 25.5369 -81.9981 170° South 420 483 21,100 -2,529 Descending Miami Center
12:24PM 25.4272 -81.9750 169° South 420 483 18,700 -2,600 Descending Miami Center
12:25PM 25.3153 -81.9519 169° South 415 478 15,900 -2,975 Descending Miami Center
12:26PM 25.2053 -81.9289 169° South 410 472 12,800 -2,650 Descending Miami Center
12:27PM 25.0975 -81.9083 170° South 410 472 10,600 -1,250 Descending Miami Center
12:28PM 25.0053 -81.9161 184° South 376 433 10,300 -900 Descending Miami Center
12:29PM 24.9239 -81.9197 182° South 331 381 8,800 -1,600 Descending Miami Center
12:30PM 24.8403 -81.9183 179° South 306 352 7,100 -1,450 Descending Miami Center
12:31PM 24.7672 -81.9200 181° South 295 339 5,900 -1,150 Descending Miami Center
12:32PM 24.6964 -81.9147 176° South 284 327 4,800 -900 Descending Miami Center
12:33PM 24.6408 -81.8897 158° South 246 283 4,100 -850 Descending Miami Center
12:34PM 24.5975 -81.8697 157° South 201 231 3,100 -1,050 Descending Miami Center
12:35PM 24.5708 -81.8594 161° South 168 193 2,000 -1,100 Descending Miami Center
12:37PM 24.5561 -81.7596 124° Southeast  Level Estimated
12:44PM 24.5561 -81.7596 124° Southeast  Level Estimated
12:45PM 24.5561 -81.7596 124° Southeast  Level Estimated
12:46PM 24.5561 -81.7596 124° Southeast  Level Estimated

Login

Don't have an account? Register now (free) for customized features, flight alerts, and more!